Time;durP1;ratioP1;P1;durP2;ratioP2;P2;SDS_P1;SDS_P2;PMS_P1;PMS_P2;Temp;Humidity;BMP_temperature;BMP_pressure;BME280_temperature;BME280_humidity;BME280_pressure;Samples;Min_cycle;Max_cycle;Signal;HPM_P1;HPM_P2
2021/08/26 00:12:48;;;;;;;13.4;8.5;;;;;;;10.54;100;98010.77;;;;
2021/08/26 00:22:47;;;;;;;14.8;8.4;;;;;;;10.65;100;97995.05;;;;
2021/08/26 00:32:46;;;;;;;11.6;7.5;;;;;;;10.75;100;97985.81;;;;
2021/08/26 00:42:46;;;;;;;13.3;8.5;;;;;;;10.87;100;97973.22;;;;
2021/08/26 00:52:46;;;;;;;14.5;8.2;;;;;;;10.85;100;97956.59;;;;
2021/08/26 01:02:44;;;;;;;11.3;7.6;;;;;;;10.8;100;97959.45;;;;
2021/08/26 01:12:43;;;;;;;10.8;7;;;;;;;10.68;100;97948.58;;;;
2021/08/26 01:22:42;;;;;;;9;6.7;;;;;;;10.78;100;97931.25;;;;
2021/08/26 01:32:41;;;;;;;10.6;7.6;;;;;;;10.97;100;97912.74;;;;
2021/08/26 01:42:40;;;;;;;11.5;7.9;;;;;;;11.19;100;97923.25;;;;
2021/08/26 01:52:40;;;;;;;13.7;8.1;;;;;;;11.29;100;97922.06;;;;
2021/08/26 02:02:40;;;;;;;8.4;6.2;;;;;;;11.28;100;97912.41;;;;
2021/08/26 02:12:40;;;;;;;8.8;6.1;;;;;;;11.34;100;97884.91;;;;
2021/08/26 02:22:36;;;;;;;12.3;7.3;;;;;;;11.57;100;97872.65;;;;
2021/08/26 02:32:35;;;;;;;12;6.7;;;;;;;11.87;100;97849.05;;;;
2021/08/26 02:42:34;;;;;;;10.8;5.2;;;;;;;12.09;100;97837.06;;;;
2021/08/26 02:52:33;;;;;;;11.8;5.8;;;;;;;12.26;100;97820.64;;;;
2021/08/26 03:02:32;;;;;;;9;4.4;;;;;;;12.35;100;97820.55;;;;
2021/08/26 03:12:31;;;;;;;9.3;4.5;;;;;;;12.46;100;97813.58;;;;
2021/08/26 03:22:31;;;;;;;8;4.9;;;;;;;12.51;100;97813.34;;;;
2021/08/26 03:32:30;;;;;;;7.2;4.8;;;;;;;12.58;100;97802.75;;;;
2021/08/26 03:42:29;;;;;;;7;4.7;;;;;;;12.55;100;97795.32;;;;
2021/08/26 03:52:28;;;;;;;6.5;5.2;;;;;;;12.56;100;97791.5;;;;
2021/08/26 04:02:27;;;;;;;9.6;5.9;;;;;;;12.72;100;97795.08;;;;
2021/08/26 04:12:27;;;;;;;7;4.7;;;;;;;12.8;100;97783.36;;;;
2021/08/26 04:22:26;;;;;;;6.4;3.7;;;;;;;12.72;100;97783.47;;;;
2021/08/26 04:32:25;;;;;;;8.2;4.2;;;;;;;12.71;100;97781.88;;;;
2021/08/26 04:42:25;;;;;;;6.8;5.1;;;;;;;12.46;100;97773.05;;;;
2021/08/26 04:52:24;;;;;;;9.5;5.3;;;;;;;12.31;100;97760.2;;;;
2021/08/26 05:02:23;;;;;;;11.1;3.8;;;;;;;12.23;100;97752.98;;;;
2021/08/26 05:12:22;;;;;;;8.6;5.7;;;;;;;12.36;100;97755.34;;;;
2021/08/26 05:22:22;;;;;;;5.9;4.7;;;;;;;12.58;100;97752.19;;;;
2021/08/26 05:32:21;;;;;;;7.5;4.4;;;;;;;12.51;100;97738.45;;;;
2021/08/26 05:42:20;;;;;;;8.4;5.3;;;;;;;12.75;100;97734.11;;;;
2021/08/26 05:52:19;;;;;;;8.2;4.8;;;;;;;12.88;100;97727.54;;;;
2021/08/26 06:02:19;;;;;;;6.6;4.1;;;;;;;13.02;100;97731.44;;;;
2021/08/26 06:12:18;;;;;;;6.4;4.6;;;;;;;13.19;100;97733.09;;;;
2021/08/26 06:22:17;;;;;;;9.3;5.7;;;;;;;13.39;100;97742.94;;;;
2021/08/26 06:32:17;;;;;;;8.5;5.2;;;;;;;13.65;100;97752.48;;;;
2021/08/26 06:42:16;;;;;;;6.4;5.5;;;;;;;13.56;100;97756.16;;;;
2021/08/26 06:52:16;;;;;;;7.2;4.5;;;;;;;13.84;100;97760.73;;;;
2021/08/26 07:02:16;;;;;;;7.3;4.6;;;;;;;13.96;100;97760.64;;;;
2021/08/26 07:12:16;;;;;;;9.7;5.3;;;;;;;14;100;97753.39;;;;
2021/08/26 07:22:16;;;;;;;8.5;6.2;;;;;;;14.47;100;97759.58;;;;
2021/08/26 07:32:20;;;;;;;7.8;4.8;;;;;;;14.69;100;97763.56;;;;
2021/08/26 07:42:16;;;;;;;9.4;4.7;;;;;;;14.62;100;97752.55;;;;
2021/08/26 07:52:16;;;;;;;6.6;5.3;;;;;;;14.42;100;97750.94;;;;
2021/08/26 08:02:16;;;;;;;7.5;5;;;;;;;14.58;100;97757.11;;;;
2021/08/26 08:12:22;;;;;;;7;4.3;;;;;;;14.83;100;97755.73;;;;
2021/08/26 08:22:16;;;;;;;9.6;4.5;;;;;;;14.54;100;97745.42;;;;
2021/08/26 08:32:11;;;;;;;7;4.9;;;;;;;14.85;100;97745.33;;;;
2021/08/26 08:42:11;;;;;;;7.6;5;;;;;;;14.8;100;97753.73;;;;
2021/08/26 08:52:11;;;;;;;11.9;7;;;;;;;15.03;100;97754.61;;;;
2021/08/26 09:02:10;;;;;;;7.7;5.3;;;;;;;14.96;100;97753.7;;;;
2021/08/26 09:12:10;;;;;;;9.7;5.3;;;;;;;14.81;100;97757.23;;;;
2021/08/26 09:22:10;;;;;;;8;4.3;;;;;;;14.76;100;97766.43;;;;
2021/08/26 09:32:10;;;;;;;7.9;4.9;;;;;;;14.82;100;97758.82;;;;
2021/08/26 09:42:09;;;;;;;8.3;5.4;;;;;;;14.95;100;97760.25;;;;
2021/08/26 09:52:10;;;;;;;6;4.2;;;;;;;15.35;100;97766.11;;;;
2021/08/26 10:02:09;;;;;;;14;4.8;;;;;;;15.62;100;97779.85;;;;
2021/08/26 10:12:11;;;;;;;6.9;4;;;;;;;15.93;100;97769.53;;;;
2021/08/26 10:22:08;;;;;;;8.9;4.4;;;;;;;15.65;100;97762.83;;;;
2021/08/26 10:32:08;;;;;;;7.2;4.3;;;;;;;15.78;100;97766.94;;;;
2021/08/26 10:42:08;;;;;;;7.6;5.1;;;;;;;15.94;100;97776.55;;;;
2021/08/26 10:52:07;;;;;;;6.7;3.8;;;;;;;15.77;100;97768.88;;;;
2021/08/26 11:02:07;;;;;;;6.3;4.2;;;;;;;15.62;100;97769.75;;;;
2021/08/26 11:12:07;;;;;;;7.2;4.9;;;;;;;15.58;100;97774.35;;;;
2021/08/26 11:22:07;;;;;;;7.3;4.3;;;;;;;16;100;97780.53;;;;
2021/08/26 11:32:06;;;;;;;5.1;3.2;;;;;;;15.6;100;97772.05;;;;
2021/08/26 11:42:06;;;;;;;5.6;3.3;;;;;;;15.26;100;97770.19;;;;
2021/08/26 11:52:06;;;;;;;5.9;3.9;;;;;;;15.44;100;97768.62;;;;
2021/08/26 12:02:05;;;;;;;4.8;3.2;;;;;;;14.87;100;97767.45;;;;
2021/08/26 12:12:05;;;;;;;6.5;3.3;;;;;;;14.68;100;97759.3;;;;
2021/08/26 12:22:05;;;;;;;6.2;3.1;;;;;;;14.86;100;97763.16;;;;
2021/08/26 12:32:04;;;;;;;5.6;3.2;;;;;;;14.92;100;97756.34;;;;
2021/08/26 12:42:04;;;;;;;5.2;3.3;;;;;;;15.19;100;97751.84;;;;
2021/08/26 12:52:03;;;;;;;12.1;4.2;;;;;;;15.31;100;97745.45;;;;
2021/08/26 13:02:03;;;;;;;5.6;3.7;;;;;;;15.32;100;97728.82;;;;
2021/08/26 13:12:03;;;;;;;4.5;3;;;;;;;15.22;100;97736.75;;;;
2021/08/26 13:22:02;;;;;;;5.4;3.2;;;;;;;15.39;100;97730.88;;;;
2021/08/26 13:32:02;;;;;;;4.6;2.9;;;;;;;15.36;100;97723.45;;;;
2021/08/26 13:42:01;;;;;;;5;3.1;;;;;;;15.97;100;97717.95;;;;
2021/08/26 13:52:02;;;;;;;5;2.8;;;;;;;16.37;100;97712.78;;;;
2021/08/26 14:02:01;;;;;;;6.1;4.1;;;;;;;16.75;100;97719.16;;;;
2021/08/26 14:12:01;;;;;;;5.6;3.3;;;;;;;17.05;100;97717.2;;;;
2021/08/26 14:22:01;;;;;;;7.4;3.5;;;;;;;16.94;100;97722.52;;;;
2021/08/26 14:32:02;;;;;;;5.9;3.6;;;;;;;16.93;100;97712.8;;;;
2021/08/26 14:42:00;;;;;;;5.3;3.3;;;;;;;17.07;100;97715.7;;;;
2021/08/26 14:52:00;;;;;;;6.9;4.1;;;;;;;17.51;100;97721.24;;;;
2021/08/26 15:02:00;;;;;;;6.8;3.9;;;;;;;18.44;100;97709.19;;;;
2021/08/26 15:12:00;;;;;;;7.6;3.5;;;;;;;18.73;100;97685.61;;;;
2021/08/26 15:22:00;;;;;;;5.1;3.3;;;;;;;19.15;100;97698.66;;;;
2021/08/26 15:32:00;;;;;;;8.9;3.8;;;;;;;19.35;100;97700.68;;;;
2021/08/26 15:42:01;;;;;;;6.6;3.5;;;;;;;20.49;100;97701.56;;;;
2021/08/26 15:52:06;;;;;;;6.5;3.2;;;;;;;19.21;100;97706.09;;;;
2021/08/26 16:02:06;;;;;;;7.3;4.3;;;;;;;17.86;100;97696.3;;;;
2021/08/26 16:12:01;;;;;;;5.4;3.3;;;;;;;18.22;100;97705.55;;;;
2021/08/26 16:22:02;;;;;;;7;2.9;;;;;;;18.86;100;97714.92;;;;
2021/08/26 16:32:02;;;;;;;7.2;3;;;;;;;17.81;100;97712.98;;;;
2021/08/26 16:42:02;;;;;;;5.3;3.2;;;;;;;17.77;100;97703.23;;;;
2021/08/26 16:52:02;;;;;;;4.3;2.5;;;;;;;17.63;100;97695.7;;;;
2021/08/26 17:02:02;;;;;;;4.9;2.3;;;;;;;16.94;100;97705.39;;;;
2021/08/26 17:12:02;;;;;;;3.8;2.2;;;;;;;16.21;100;97712.13;;;;
2021/08/26 17:22:02;;;;;;;6.4;2.7;;;;;;;15.79;100;97730.48;;;;
2021/08/26 17:32:02;;;;;;;6.6;2.8;;;;;;;15.5;100;97735.41;;;;
2021/08/26 17:42:01;;;;;;;5.3;2.5;;;;;;;14.99;100;97734.75;;;;
2021/08/26 17:52:01;;;;;;;4.9;3.4;;;;;;;14.8;100;97740.17;;;;
2021/08/26 18:02:01;;;;;;;7.7;3.8;;;;;;;14.42;100;97740.09;;;;
2021/08/26 18:12:00;;;;;;;6.3;4.6;;;;;;;14.24;100;97731.52;;;;
2021/08/26 18:22:00;;;;;;;5.4;3.1;;;;;;;13.92;100;97738.88;;;;
2021/08/26 18:31:59;;;;;;;6.6;4;;;;;;;13.81;100;97750.59;;;;
2021/08/26 18:41:59;;;;;;;6.4;3.8;;;;;;;13.7;100;97754.95;;;;
2021/08/26 18:51:58;;;;;;;5.6;3.6;;;;;;;13.59;100;97760.88;;;;
2021/08/26 19:01:58;;;;;;;7.3;3.4;;;;;;;13.44;100;97760.83;;;;
2021/08/26 19:11:57;;;;;;;6.5;4.2;;;;;;;13.37;100;97774.17;;;;
2021/08/26 19:21:57;;;;;;;7;4.7;;;;;;;13.28;100;97768.92;;;;
2021/08/26 19:31:56;;;;;;;10.2;4.6;;;;;;;13.02;100;97777.42;;;;
2021/08/26 19:41:56;;;;;;;8.8;4;;;;;;;12.94;100;97774.87;;;;
2021/08/26 19:51:55;;;;;;;9.5;5.3;;;;;;;12.68;100;97779.86;;;;
2021/08/26 20:01:54;;;;;;;6.6;3.3;;;;;;;12.55;100;97800.73;;;;
2021/08/26 20:11:54;;;;;;;7.3;5.1;;;;;;;12.43;100;97816.93;;;;
2021/08/26 20:21:53;;;;;;;11.2;5.6;;;;;;;12.28;100;97828.43;;;;
2021/08/26 20:31:52;;;;;;;8.2;3.7;;;;;;;12.16;100;97828.4;;;;
2021/08/26 20:41:51;;;;;;;8.3;6;;;;;;;12.25;100;97826.41;;;;
2021/08/26 20:51:51;;;;;;;6.7;4.6;;;;;;;12.23;100;97812.42;;;;
2021/08/26 21:01:50;;;;;;;7.5;4.7;;;;;;;12.19;100;97820.41;;;;
2021/08/26 21:11:49;;;;;;;10.8;6.6;;;;;;;12.01;100;97802.83;;;;
2021/08/26 21:21:48;;;;;;;16.4;7.3;;;;;;;11.69;100;97806.34;;;;
2021/08/26 21:31:48;;;;;;;7.7;5.1;;;;;;;11.52;100;97799.98;;;;
2021/08/26 21:41:47;;;;;;;10.7;5.5;;;;;;;11.62;100;97801.49;;;;
2021/08/26 21:51:46;;;;;;;9.6;5.7;;;;;;;11.51;100;97797.63;;;;
2021/08/26 22:01:45;;;;;;;8.9;5.6;;;;;;;11.42;100;97807.73;;;;
2021/08/26 22:11:45;;;;;;;10.3;6.1;;;;;;;11.12;100;97839.38;;;;
2021/08/26 22:21:44;;;;;;;9.3;4.8;;;;;;;11.23;100;97883.72;;;;
2021/08/26 22:31:43;;;;;;;13.4;6;;;;;;;11.52;100;97912.55;;;;
2021/08/26 22:41:42;;;;;;;8.1;4.6;;;;;;;11.85;100;97907.2;;;;
2021/08/26 22:51:41;;;;;;;8.7;5.3;;;;;;;11.99;100;97896.91;;;;
2021/08/26 23:01:41;;;;;;;6.9;4.3;;;;;;;12.05;100;97928.77;;;;
2021/08/26 23:11:40;;;;;;;8.6;5.6;;;;;;;12.1;100;97928.58;;;;
2021/08/26 23:21:39;;;;;;;8.9;5;;;;;;;12.3;100;97918.03;;;;
2021/08/26 23:31:38;;;;;;;7.6;4.2;;;;;;;12.1;100;97922.38;;;;
2021/08/26 23:41:38;;;;;;;6.8;4.1;;;;;;;12.25;100;97926.36;;;;
2021/08/26 23:51:37;;;;;;;10.5;5.8;;;;;;;12.29;100;97935.36;;;;
